This is the latest recevied weather packets stored in our database for station/object VK3BYD-3. If no packets are shown the sender has not sent any weather packets the latest 10 day(s).
| Time | Temp. | Humidity | Pressure | Rain* | Wind** | Luminosity | Snow |
|---|---|---|---|---|---|---|---|
| 1777780818 | 19.44° C | 87% | 1013.3 hPa | 0.51 mm | - | - | - |
| 1777779918 | 18.89° C | 86% | 1013.5 hPa | 0.25 mm | - | - | - |
| 1777779018 | 18.89° C | 86% | 1013.6 hPa | 0.76 mm | - | - | - |
| 1777778118 | 18.33° C | 88% | 1013.9 hPa | 0.76 mm | - | - | - |
| 1777777218 | 18.33° C | 88% | 1014.1 hPa | 0.51 mm | - | - | - |
| 1777776318 | 18.33° C | 86% | 1013.9 hPa | 0.51 mm | - | - | - |
| 1777775418 | 19.44° C | 83% | 1014.2 hPa | 0 mm | - | - | - |
| 1777774516 | 19.44° C | 83% | 1014 hPa | 0.25 mm | - | - | - |
| 1777773613 | 18.89° C | 85% | 1014.2 hPa | 0.25 mm | - | - | - |
| 1777772712 | 18.89° C | 85% | 1014.3 hPa | 0.25 mm | - | - | - |
| 1777771811 | 18.89° C | 83% | 1014.5 hPa | 0.25 mm | - | - | - |
| 1777770912 | 19.44° C | 82% | 1015.3 hPa | 0.25 mm | - | - | - |
| 1777770012 | 19.44° C | 83% | 1015.4 hPa | 0.25 mm | - | - | - |
| 1777769111 | 18.89° C | 82% | 1015.6 hPa | 0.25 mm | - | - | - |
| 1777768211 | 19.44° C | 79% | 1015.5 hPa | 0.25 mm | - | - | - |
| 1777767312 | 20° C | 77% | 1015.4 hPa | 0 mm | - | - | - |
| 1777766411 | 19.44° C | 79% | 1015.3 hPa | 0 mm | - | - | - |
| 1777765510 | 19.44° C | 80% | 1015.6 hPa | 0 mm | - | - | - |
| 1777764607 | 18.89° C | 80% | 1015.7 hPa | 0.25 mm | - | - | - |
| 1777763707 | 18.89° C | 82% | 1015.9 hPa | 0.25 mm | - | - | - |
| 1777762799 | 18.33° C | 83% | 1016 hPa | 0.25 mm | - | - | - |
| 1777761899 | 18.33° C | 84% | 1016.1 hPa | 0.25 mm | - | - | - |
| 1777760999 | 18.33° C | 83% | 1016.2 hPa | 0 mm | - | - | - |
| 1777760100 | 17.78° C | 85% | 1015.9 hPa | 0 mm | - | - | - |
| 1777759199 | 17.78° C | 85% | 1015.9 hPa | 0 mm | - | - | - |
* Rain latest hour (hover to see other rain measurements)
** Current wind speed in m/s (hover to see current wind gust speed)